Time,TemperatureF,DewpointF,PressureIn,WindDirection,WindDirectionDegrees,WindSpeedMPH,WindSpeedGustMPH,Humidity,HourlyPrecipIn,Conditions,Clouds,dailyrainin,SoftwareType,DateUTC
2013-09-12 00:04:00,62.3,55.3,29.95,North,0,0.0,0.0,78,0.00,,,0.00,WUHU216HW,2013-09-12 07:04:00,
2013-09-12 01:00:00,62.6,55.3,29.95,North,0,0.0,0.0,77,0.00,,,0.00,WUHU216HW,2013-09-12 08:00:00,
2013-09-12 01:05:00,62.6,55.3,29.95,North,0,0.0,0.0,77,0.00,,,0.00,WUHU216HW,2013-09-12 08:05:00,
2013-09-12 02:00:00,62.8,56.2,29.95,North,0,0.0,0.0,79,0.00,,,0.00,WUHU216HW,2013-09-12 09:00:00,
2013-09-12 02:05:00,62.8,56.2,29.95,North,0,0.0,0.0,79,0.00,,,0.00,WUHU216HW,2013-09-12 09:05:00,
2013-09-12 02:59:00,63.0,56.0,29.94,North,0,0.0,0.0,78,0.00,,,0.00,WUHU216HW,2013-09-12 09:59:00,
2013-09-12 03:04:00,63.0,56.0,29.94,North,0,0.0,0.0,78,0.00,,,0.00,WUHU216HW,2013-09-12 10:04:00,
2013-09-12 04:00:00,63.0,56.3,29.94,North,0,0.0,0.0,79,0.00,,,0.00,WUHU216HW,2013-09-12 11:00:00,
2013-09-12 04:04:00,63.0,56.3,29.94,North,0,0.0,0.0,79,0.00,,,0.00,WUHU216HW,2013-09-12 11:04:00,
2013-09-12 04:59:00,63.0,56.3,29.94,North,0,0.0,0.0,79,0.00,,,0.00,WUHU216HW,2013-09-12 11:59:00,
2013-09-12 05:04:00,63.0,56.3,29.94,North,0,0.0,0.0,79,0.00,,,0.00,WUHU216HW,2013-09-12 12:04:00,
2013-09-12 06:00:00,63.0,56.3,29.94,North,0,0.0,0.0,79,0.00,,,0.00,WUHU216HW,2013-09-12 13:00:00,
2013-09-12 06:05:00,63.0,56.3,29.94,North,0,0.0,0.0,79,0.00,,,0.00,WUHU216HW,2013-09-12 13:05:00,
2013-09-12 06:59:00,62.8,56.2,29.95,North,0,0.0,0.0,79,0.00,,,0.00,WUHU216HW,2013-09-12 13:59:00,
2013-09-12 07:04:00,62.8,56.2,29.95,North,0,0.0,0.0,79,0.00,,,0.00,WUHU216HW,2013-09-12 14:04:00,
2013-09-12 07:59:00,63.2,56.5,29.96,North,0,0.0,0.0,79,0.00,,,0.00,WUHU216HW,2013-09-12 14:59:00,
2013-09-12 08:04:00,63.2,56.5,29.96,North,0,0.0,0.0,79,0.00,,,0.00,WUHU216HW,2013-09-12 15:04:00,
2013-09-12 08:59:00,64.3,57.2,29.96,North,0,0.0,0.0,78,0.00,,,0.00,WUHU216HW,2013-09-12 15:59:00,
2013-09-12 09:04:00,64.3,57.2,29.96,North,0,0.0,0.0,78,0.00,,,0.00,WUHU216HW,2013-09-12 16:04:00,
2013-09-12 09:59:00,67.1,58.6,29.96,North,0,0.0,0.0,74,0.00,,,0.00,WUHU216HW,2013-09-12 16:59:00,
2013-09-12 10:04:00,67.1,58.6,29.96,North,0,0.0,0.0,74,0.00,,,0.00,WUHU216HW,2013-09-12 17:04:00,
2013-09-12 11:00:00,70.0,59.3,29.96,North,0,0.0,0.0,69,0.00,,,0.00,WUHU216HW,2013-09-12 18:00:00,
2013-09-12 11:05:00,70.0,59.0,29.96,North,0,0.0,0.0,68,0.00,,,0.00,WUHU216HW,2013-09-12 18:05:00,
2013-09-12 11:10:00,70.0,59.0,29.96,North,0,0.0,0.0,68,0.00,,,0.00,WUHU216HW,2013-09-12 18:10:00,
2013-09-12 12:00:00,71.5,59.5,29.94,North,0,0.0,0.0,66,0.00,,,0.00,WUHU216HW,2013-09-12 19:00:00,
2013-09-12 12:05:00,71.5,59.5,29.94,North,0,0.0,0.0,66,0.00,,,0.00,WUHU216HW,2013-09-12 19:05:00,
2013-09-12 13:00:00,74.7,60.9,29.93,North,0,0.0,0.0,62,0.00,,,0.00,WUHU216HW,2013-09-12 20:00:00,
2013-09-12 13:05:00,75.2,60.9,29.92,North,0,0.0,0.0,61,0.00,,,0.00,WUHU216HW,2013-09-12 20:05:00,
2013-09-12 13:10:00,75.6,61.2,29.92,North,0,0.0,0.0,61,0.00,,,0.00,WUHU216HW,2013-09-12 20:10:00,
2013-09-12 13:14:00,76.0,61.1,29.92,North,0,0.0,0.0,60,0.00,,,0.00,WUHU216HW,2013-09-12 20:14:00,
2013-09-12 13:19:00,76.0,60.7,29.92,North,0,0.0,0.0,59,0.00,,,0.00,WUHU216HW,2013-09-12 20:19:00,
2013-09-12 13:24:00,76.0,60.7,29.92,North,0,0.0,0.0,59,0.00,,,0.00,WUHU216HW,2013-09-12 20:24:00,
2013-09-12 13:29:00,76.5,61.1,29.92,North,0,0.0,0.0,59,0.00,,,0.00,WUHU216HW,2013-09-12 20:29:00,
2013-09-12 13:34:00,76.7,60.8,29.91,North,0,0.0,0.0,58,0.00,,,0.00,WUHU216HW,2013-09-12 20:34:00,
2013-09-12 13:39:00,76.7,60.8,29.91,North,0,0.0,0.0,58,0.00,,,0.00,WUHU216HW,2013-09-12 20:39:00,
2013-09-12 13:44:00,77.0,60.6,29.91,North,0,0.0,0.0,57,0.00,,,0.00,WUHU216HW,2013-09-12 20:44:00,
2013-09-12 13:49:00,77.2,60.3,29.91,North,0,0.0,0.0,56,0.00,,,0.00,WUHU216HW,2013-09-12 20:49:00,
2013-09-12 13:54:00,77.6,60.6,29.90,North,0,0.0,0.0,56,0.00,,,0.00,WUHU216HW,2013-09-12 20:54:00,
2013-09-12 13:59:00,77.8,60.8,29.90,North,0,0.0,0.0,56,0.00,,,0.00,WUHU216HW,2013-09-12 20:59:00,
2013-09-12 14:04:00,78.1,60.1,29.90,North,0,0.0,0.0,54,0.00,,,0.00,WUHU216HW,2013-09-12 21:04:00,
2013-09-12 14:09:00,78.5,60.4,29.90,North,0,0.0,0.0,54,0.00,,,0.00,WUHU216HW,2013-09-12 21:09:00,
2013-09-12 14:14:00,78.8,60.8,29.89,North,0,0.0,0.0,54,0.00,,,0.00,WUHU216HW,2013-09-12 21:14:00,
2013-09-12 14:19:00,79.4,60.8,29.89,North,0,0.0,0.0,53,0.00,,,0.00,WUHU216HW,2013-09-12 21:19:00,
2013-09-12 14:24:00,79.9,60.7,29.89,North,0,0.0,0.0,52,0.00,,,0.00,WUHU216HW,2013-09-12 21:24:00,
2013-09-12 14:29:00,80.1,60.8,29.89,North,0,0.0,0.0,52,0.00,,,0.00,WUHU216HW,2013-09-12 21:29:00,
2013-09-12 14:34:00,80.3,60.5,29.89,North,0,0.0,0.0,51,0.00,,,0.00,WUHU216HW,2013-09-12 21:34:00,
2013-09-12 14:39:00,80.6,61.4,29.89,North,0,0.0,0.0,52,0.00,,,0.00,WUHU216HW,2013-09-12 21:39:00,
2013-09-12 14:44:00,81.0,61.1,29.89,North,0,0.0,0.0,51,0.00,,,0.00,WUHU216HW,2013-09-12 21:44:00,
2013-09-12 14:49:00,81.4,60.9,29.88,North,0,0.0,0.0,50,0.00,,,0.00,WUHU216HW,2013-09-12 21:49:00,
2013-09-12 14:54:00,81.5,61.1,29.88,North,0,0.0,0.0,50,0.00,,,0.00,WUHU216HW,2013-09-12 21:54:00,
2013-09-12 14:59:00,81.7,61.3,29.88,North,0,0.0,0.0,50,0.00,,,0.00,WUHU216HW,2013-09-12 21:59:00,
2013-09-12 15:04:00,82.1,61.6,29.88,North,0,0.0,0.0,50,0.00,,,0.00,WUHU216HW,2013-09-12 22:04:00,
2013-09-12 15:09:00,82.1,61.0,29.88,North,0,0.0,0.0,49,0.00,,,0.00,WUHU216HW,2013-09-12 22:09:00,
2013-09-12 15:14:00,82.1,61.0,29.88,North,0,0.0,0.0,49,0.00,,,0.00,WUHU216HW,2013-09-12 22:14:00,
2013-09-12 15:19:00,82.1,61.0,29.88,North,0,0.0,0.0,49,0.00,,,0.00,WUHU216HW,2013-09-12 22:19:00,
2013-09-12 15:24:00,82.1,61.0,29.87,North,0,0.0,0.0,49,0.00,,,0.00,WUHU216HW,2013-09-12 22:24:00,
2013-09-12 15:29:00,82.3,61.1,29.88,North,0,0.0,0.0,49,0.00,,,0.00,WUHU216HW,2013-09-12 22:29:00,
2013-09-12 15:34:00,82.3,60.6,29.87,North,0,0.0,0.0,48,0.00,,,0.00,WUHU216HW,2013-09-12 22:34:00,
2013-09-12 15:39:00,82.4,60.7,29.87,North,0,0.0,0.0,48,0.00,,,0.00,WUHU216HW,2013-09-12 22:39:00,
2013-09-12 15:44:00,82.4,60.7,29.87,North,0,0.0,0.0,48,0.00,,,0.00,WUHU216HW,2013-09-12 22:44:00,
2013-09-12 15:49:00,82.4,60.1,29.87,North,0,0.0,0.0,47,0.00,,,0.00,WUHU216HW,2013-09-12 22:49:00,
2013-09-12 15:54:00,82.4,60.7,29.87,North,0,0.0,0.0,48,0.00,,,0.00,WUHU216HW,2013-09-12 22:54:00,
2013-09-12 15:59:00,82.6,60.3,29.86,North,0,0.0,0.0,47,0.00,,,0.00,WUHU216HW,2013-09-12 22:59:00,
2013-09-12 16:04:00,82.8,60.4,29.86,North,0,0.0,0.0,47,0.00,,,0.00,WUHU216HW,2013-09-12 23:04:00,
2013-09-12 16:09:00,82.8,59.2,29.87,North,0,0.0,0.0,45,0.00,,,0.00,WUHU216HW,2013-09-12 23:09:00,
2013-09-12 16:14:00,82.4,59.5,29.87,North,0,0.0,0.0,46,0.00,,,0.00,WUHU216HW,2013-09-12 23:14:00,
2013-09-12 16:19:00,82.3,59.3,29.87,North,0,0.0,0.0,46,0.00,,,0.00,WUHU216HW,2013-09-12 23:19:00,
2013-09-12 16:24:00,82.3,59.3,29.86,North,0,0.0,0.0,46,0.00,,,0.00,WUHU216HW,2013-09-12 23:24:00,
2013-09-12 16:29:00,81.9,59.6,29.87,North,0,0.0,0.0,47,0.00,,,0.00,WUHU216HW,2013-09-12 23:29:00,
2013-09-12 16:34:00,82.1,59.8,29.86,North,0,0.0,0.0,47,0.00,,,0.00,WUHU216HW,2013-09-12 23:34:00,
2013-09-12 16:39:00,82.1,59.8,29.86,North,0,0.0,0.0,47,0.00,,,0.00,WUHU216HW,2013-09-12 23:39:00,
2013-09-12 16:44:00,82.1,59.8,29.86,North,0,0.0,0.0,47,0.00,,,0.00,WUHU216HW,2013-09-12 23:44:00,
2013-09-12 16:49:00,81.9,59.6,29.86,North,0,0.0,0.0,47,0.00,,,0.00,WUHU216HW,2013-09-12 23:49:00,
2013-09-12 16:54:00,81.7,58.9,29.86,North,0,0.0,0.0,46,0.00,,,0.00,WUHU216HW,2013-09-12 23:54:00,
2013-09-12 16:59:00,81.4,59.1,29.86,North,0,0.0,0.0,47,0.00,,,0.00,WUHU216HW,2013-09-12 23:59:00,
2013-09-12 17:04:00,81.4,59.1,29.86,North,0,0.0,0.0,47,0.00,,,0.00,WUHU216HW,2013-09-13 00:04:00,
2013-09-12 17:09:00,81.0,58.1,29.86,North,0,0.0,0.0,46,0.00,,,0.00,WUHU216HW,2013-09-13 00:09:00,
2013-09-12 17:14:00,80.6,58.5,29.86,North,0,0.0,0.0,47,0.00,,,0.00,WUHU216HW,2013-09-13 00:14:00,
2013-09-12 17:19:00,80.5,59.0,29.86,North,0,0.0,0.0,48,0.00,,,0.00,WUHU216HW,2013-09-13 00:19:00,
2013-09-12 17:24:00,80.3,58.8,29.86,North,0,0.0,0.0,48,0.00,,,0.00,WUHU216HW,2013-09-13 00:24:00,
2013-09-12 17:29:00,80.1,58.6,29.86,North,0,0.0,0.0,48,0.00,,,0.00,WUHU216HW,2013-09-13 00:29:00,
2013-09-12 17:34:00,79.9,58.4,29.86,North,0,0.0,0.0,48,0.00,,,0.00,WUHU216HW,2013-09-13 00:34:00,
2013-09-12 17:39:00,79.6,58.2,29.86,North,0,0.0,0.0,48,0.00,,,0.00,WUHU216HW,2013-09-13 00:39:00,
2013-09-12 17:44:00,79.0,58.2,29.86,North,0,0.0,0.0,49,0.00,,,0.00,WUHU216HW,2013-09-13 00:44:00,
2013-09-12 17:49:00,78.8,58.7,29.86,North,0,0.0,0.0,50,0.00,,,0.00,WUHU216HW,2013-09-13 00:49:00,
2013-09-12 17:54:00,78.7,58.5,29.86,North,0,0.0,0.0,50,0.00,,,0.00,WUHU216HW,2013-09-13 00:54:00,
2013-09-12 17:59:00,78.3,58.2,29.86,North,0,0.0,0.0,50,0.00,,,0.00,WUHU216HW,2013-09-13 00:59:00,
2013-09-12 18:04:00,78.1,58.6,29.86,North,0,0.0,0.0,51,0.00,,,0.00,WUHU216HW,2013-09-13 01:04:00,
2013-09-12 18:09:00,77.6,58.1,29.86,North,0,0.0,0.0,51,0.00,,,0.00,WUHU216HW,2013-09-13 01:09:00,
2013-09-12 18:14:00,77.2,58.2,29.86,North,0,0.0,0.0,52,0.00,,,0.00,WUHU216HW,2013-09-13 01:14:00,
2013-09-12 18:19:00,76.9,57.9,29.86,North,0,0.0,0.0,52,0.00,,,0.00,WUHU216HW,2013-09-13 01:19:00,
2013-09-12 18:24:00,76.3,58.0,29.86,North,0,0.0,0.0,53,0.00,,,0.00,WUHU216HW,2013-09-13 01:24:00,
2013-09-12 18:29:00,76.0,58.2,29.87,North,0,0.0,0.0,54,0.00,,,0.00,WUHU216HW,2013-09-13 01:29:00,
2013-09-12 18:34:00,75.6,57.8,29.86,North,0,0.0,0.0,54,0.00,,,0.00,WUHU216HW,2013-09-13 01:34:00,
2013-09-12 18:39:00,75.2,58.0,29.87,North,0,0.0,0.0,55,0.00,,,0.00,WUHU216HW,2013-09-13 01:39:00,
2013-09-12 18:44:00,74.7,57.4,29.87,North,0,0.0,0.0,55,0.00,,,0.00,WUHU216HW,2013-09-13 01:44:00,
2013-09-12 18:49:00,74.2,57.4,29.87,North,0,0.0,0.0,56,0.00,,,0.00,WUHU216HW,2013-09-13 01:49:00,
2013-09-12 18:54:00,73.4,57.2,29.87,North,0,0.0,0.0,57,0.00,,,0.00,WUHU216HW,2013-09-13 01:54:00,
2013-09-12 18:59:00,72.7,57.1,29.88,North,0,0.0,0.0,58,0.00,,,0.00,WUHU216HW,2013-09-13 01:59:00,
2013-09-12 19:04:00,72.2,57.1,29.87,North,0,0.0,0.0,59,0.00,,,0.00,WUHU216HW,2013-09-13 02:04:00,
2013-09-12 19:09:00,71.5,56.9,29.87,North,0,0.0,0.0,60,0.00,,,0.00,WUHU216HW,2013-09-13 02:09:00,
2013-09-12 19:14:00,71.1,57.0,29.88,North,0,0.0,0.0,61,0.00,,,0.00,WUHU216HW,2013-09-13 02:14:00,
2013-09-12 19:19:00,70.6,56.5,29.88,North,0,0.0,0.0,61,0.00,,,0.00,WUHU216HW,2013-09-13 02:19:00,
2013-09-12 19:24:00,70.0,56.0,29.88,North,0,0.0,0.0,61,0.00,,,0.00,WUHU216HW,2013-09-13 02:24:00,
2013-09-12 19:29:00,69.5,55.9,29.88,North,0,0.0,0.0,62,0.00,,,0.00,WUHU216HW,2013-09-13 02:29:00,
2013-09-12 19:34:00,68.8,55.6,29.88,North,0,0.0,0.0,63,0.00,,,0.00,WUHU216HW,2013-09-13 02:34:00,
2013-09-12 19:39:00,68.4,55.7,29.88,North,0,0.0,0.0,64,0.00,,,0.00,WUHU216HW,2013-09-13 02:39:00,
2013-09-12 19:44:00,67.7,55.4,29.88,North,0,0.0,0.0,65,0.00,,,0.00,WUHU216HW,2013-09-13 02:44:00,
2013-09-12 19:49:00,67.1,55.4,29.88,North,0,0.0,0.0,66,0.00,,,0.00,WUHU216HW,2013-09-13 02:49:00,
2013-09-12 19:54:00,66.6,55.3,29.89,North,0,0.0,0.0,67,0.00,,,0.00,WUHU216HW,2013-09-13 02:54:00,
2013-09-12 19:59:00,66.1,55.2,29.89,North,0,0.0,0.0,68,0.00,,,0.00,WUHU216HW,2013-09-13 02:59:00,
2013-09-12 20:04:00,65.5,55.1,29.89,North,0,0.0,0.0,69,0.00,,,0.00,WUHU216HW,2013-09-13 03:04:00,
2013-09-12 20:09:00,65.3,55.4,29.89,North,0,0.0,0.0,70,0.00,,,0.00,WUHU216HW,2013-09-13 03:09:00,
2013-09-12 20:14:00,65.0,55.0,29.89,North,0,0.0,0.0,70,0.00,,,0.00,WUHU216HW,2013-09-13 03:14:00,
2013-09-12 20:19:00,64.8,54.9,29.89,North,0,0.0,0.0,70,0.00,,,0.00,WUHU216HW,2013-09-13 03:19:00,
2013-09-12 20:24:00,64.4,54.9,29.89,North,0,0.0,0.0,71,0.00,,,0.00,WUHU216HW,2013-09-13 03:24:00,
2013-09-12 20:29:00,64.4,54.9,29.89,North,0,0.0,0.0,71,0.00,,,0.00,WUHU216HW,2013-09-13 03:29:00,
2013-09-12 20:34:00,64.1,54.9,29.90,North,0,0.0,0.0,72,0.00,,,0.00,WUHU216HW,2013-09-13 03:34:00,
2013-09-12 20:39:00,63.9,55.1,29.90,North,0,0.0,0.0,73,0.00,,,0.00,WUHU216HW,2013-09-13 03:39:00,
2013-09-12 20:44:00,63.7,54.9,29.90,North,0,0.0,0.0,73,0.00,,,0.00,WUHU216HW,2013-09-13 03:44:00,
2013-09-12 20:49:00,63.5,55.1,29.91,North,0,0.0,0.0,74,0.00,,,0.00,WUHU216HW,2013-09-13 03:49:00,
2013-09-12 20:54:00,63.4,54.9,29.91,North,0,0.0,0.0,74,0.00,,,0.00,WUHU216HW,2013-09-13 03:54:00,
2013-09-12 20:59:00,63.2,54.7,29.91,North,0,0.0,0.0,74,0.00,,,0.00,WUHU216HW,2013-09-13 03:59:00,
2013-09-12 21:01:00,63.0,54.5,29.91,North,0,0.0,0.0,74,0.00,,,0.00,WUHU216HW,2013-09-13 04:01:00,
2013-09-12 21:03:00,63.0,54.5,29.91,North,0,0.0,0.0,74,0.00,,,0.00,WUHU216HW,2013-09-13 04:03:00,
2013-09-12 21:08:00,62.8,54.7,29.91,North,0,0.0,0.0,75,0.00,,,0.00,WUHU216HW,2013-09-13 04:08:00,
2013-09-12 21:13:00,62.6,54.2,29.91,North,0,0.0,0.0,74,0.00,,,0.00,WUHU216HW,2013-09-13 04:13:00,
2013-09-12 21:18:00,62.5,54.7,29.91,North,0,0.0,0.0,76,0.00,,,0.00,WUHU216HW,2013-09-13 04:18:00,
2013-09-12 21:23:00,62.3,54.5,29.92,North,0,0.0,0.0,76,0.00,,,0.00,WUHU216HW,2013-09-13 04:23:00,
2013-09-12 21:28:00,62.1,54.5,29.92,North,0,0.0,0.0,76,0.00,,,0.00,WUHU216HW,2013-09-13 04:28:00,
2013-09-12 21:33:00,61.9,54.6,29.91,North,0,0.0,0.0,77,0.00,,,0.00,WUHU216HW,2013-09-13 04:33:00,
2013-09-12 21:38:00,61.7,54.1,29.91,North,0,0.0,0.0,76,0.00,,,0.00,WUHU216HW,2013-09-13 04:38:00,
2013-09-12 21:43:00,61.6,54.3,29.92,North,0,0.0,0.0,77,0.00,,,0.00,WUHU216HW,2013-09-13 04:43:00,
2013-09-12 21:48:00,61.6,54.3,29.92,North,0,0.0,0.0,77,0.00,,,0.00,WUHU216HW,2013-09-13 04:48:00,
2013-09-12 21:53:00,61.4,54.1,29.91,North,0,0.0,0.0,77,0.00,,,0.00,WUHU216HW,2013-09-13 04:53:00,
2013-09-12 21:58:00,61.2,54.0,29.92,North,0,0.0,0.0,77,0.00,,,0.00,WUHU216HW,2013-09-13 04:58:00,
2013-09-12 22:03:00,61.2,54.4,29.91,North,0,0.0,0.0,78,0.00,,,0.00,WUHU216HW,2013-09-13 05:03:00,
2013-09-12 22:08:00,61.0,54.2,29.92,North,0,0.0,0.0,78,0.00,,,0.00,WUHU216HW,2013-09-13 05:08:00,
2013-09-12 22:13:00,61.0,54.6,29.92,North,0,0.0,0.0,79,0.00,,,0.00,WUHU216HW,2013-09-13 05:13:00,
2013-09-12 22:18:00,60.8,54.4,29.92,North,0,0.0,0.0,79,0.00,,,0.00,WUHU216HW,2013-09-13 05:18:00,
2013-09-12 22:23:00,60.8,54.4,29.92,North,0,0.0,0.0,79,0.00,,,0.00,WUHU216HW,2013-09-13 05:23:00,
2013-09-12 22:28:00,60.8,54.4,29.92,North,0,0.0,0.0,79,0.00,,,0.00,WUHU216HW,2013-09-13 05:28:00,
2013-09-12 23:00:00,60.3,53.8,29.91,North,0,0.0,0.0,79,0.00,,,0.00,WUHU216HW,2013-09-13 06:00:00,
2013-09-12 23:05:00,60.3,53.8,29.91,North,0,0.0,0.0,79,0.00,,,0.00,WUHU216HW,2013-09-13 06:05:00,